sensor_id;sensor_type;location;lat;lon;timestamp;P1;durP1;ratioP1;P2;durP2;ratioP2
12076;SDS011;12420;42.676;23.262;2023-11-19T00:01:33;2.53;;;2.40;;
12076;SDS011;12420;42.676;23.262;2023-11-19T00:04:00;2.33;;;2.23;;
12076;SDS011;12420;42.676;23.262;2023-11-19T00:06:26;2.30;;;2.10;;
12076;SDS011;12420;42.676;23.262;2023-11-19T00:08:54;2.20;;;2.10;;
12076;SDS011;12420;42.676;23.262;2023-11-19T00:11:21;2.50;;;2.37;;
12076;SDS011;12420;42.676;23.262;2023-11-19T00:13:47;2.50;;;2.30;;
12076;SDS011;12420;42.676;23.262;2023-11-19T00:16:16;2.27;;;2.17;;
12076;SDS011;12420;42.676;23.262;2023-11-19T00:18:42;2.50;;;2.30;;
12076;SDS011;12420;42.676;23.262;2023-11-19T00:21:09;2.23;;;2.13;;
12076;SDS011;12420;42.676;23.262;2023-11-19T00:23:36;2.73;;;2.53;;
12076;SDS011;12420;42.676;23.262;2023-11-19T00:26:03;2.33;;;2.20;;
12076;SDS011;12420;42.676;23.262;2023-11-19T00:28:31;2.37;;;2.27;;
12076;SDS011;12420;42.676;23.262;2023-11-19T00:30:58;2.20;;;2.10;;
12076;SDS011;12420;42.676;23.262;2023-11-19T00:33:26;2.40;;;2.20;;
12076;SDS011;12420;42.676;23.262;2023-11-19T00:35:53;3.67;;;2.43;;
12076;SDS011;12420;42.676;23.262;2023-11-19T00:38:21;2.87;;;2.67;;
12076;SDS011;12420;42.676;23.262;2023-11-19T00:40:47;3.03;;;2.83;;
12076;SDS011;12420;42.676;23.262;2023-11-19T00:43:14;2.60;;;2.40;;
12076;SDS011;12420;42.676;23.262;2023-11-19T00:45:41;2.67;;;2.47;;
12076;SDS011;12420;42.676;23.262;2023-11-19T00:48:08;2.67;;;2.50;;
12076;SDS011;12420;42.676;23.262;2023-11-19T00:50:37;2.40;;;2.27;;
12076;SDS011;12420;42.676;23.262;2023-11-19T00:53:07;2.60;;;2.40;;
12076;SDS011;12420;42.676;23.262;2023-11-19T00:55:34;2.83;;;2.60;;
12076;SDS011;12420;42.676;23.262;2023-11-19T00:58:01;2.60;;;2.40;;
12076;SDS011;12420;42.676;23.262;2023-11-19T01:00:28;2.70;;;2.50;;
12076;SDS011;12420;42.676;23.262;2023-11-19T01:02:57;2.90;;;2.70;;
12076;SDS011;12420;42.676;23.262;2023-11-19T01:05:25;2.80;;;2.60;;
12076;SDS011;12420;42.676;23.262;2023-11-19T01:07:54;4.40;;;2.80;;
12076;SDS011;12420;42.676;23.262;2023-11-19T01:10:21;2.53;;;2.33;;
12076;SDS011;12420;42.676;23.262;2023-11-19T01:12:49;3.20;;;2.50;;
12076;SDS011;12420;42.676;23.262;2023-11-19T01:15:16;3.53;;;2.77;;
12076;SDS011;12420;42.676;23.262;2023-11-19T01:17:44;2.63;;;2.43;;
12076;SDS011;12420;42.676;23.262;2023-11-19T01:20:11;2.60;;;2.40;;
12076;SDS011;12420;42.676;23.262;2023-11-19T01:22:38;2.80;;;2.60;;
12076;SDS011;12420;42.676;23.262;2023-11-19T01:25:07;2.60;;;2.40;;
12076;SDS011;12420;42.676;23.262;2023-11-19T01:27:34;2.50;;;2.37;;
12076;SDS011;12420;42.676;23.262;2023-11-19T01:30:02;2.90;;;2.37;;
12076;SDS011;12420;42.676;23.262;2023-11-19T01:32:29;2.40;;;2.30;;
12076;SDS011;12420;42.676;23.262;2023-11-19T01:34:56;2.33;;;2.23;;
12076;SDS011;12420;42.676;23.262;2023-11-19T01:37:23;2.53;;;2.30;;
12076;SDS011;12420;42.676;23.262;2023-11-19T01:39:50;2.77;;;2.30;;
12076;SDS011;12420;42.676;23.262;2023-11-19T01:42:18;2.53;;;2.33;;
12076;SDS011;12420;42.676;23.262;2023-11-19T01:44:54;2.10;;;2.00;;
12076;SDS011;12420;42.676;23.262;2023-11-19T01:47:24;2.40;;;2.30;;
12076;SDS011;12420;42.676;23.262;2023-11-19T01:49:51;2.07;;;1.97;;
12076;SDS011;12420;42.676;23.262;2023-11-19T01:52:18;2.17;;;2.07;;
12076;SDS011;12420;42.676;23.262;2023-11-19T01:54:46;2.30;;;2.20;;
12076;SDS011;12420;42.676;23.262;2023-11-19T01:57:13;4.23;;;2.13;;
12076;SDS011;12420;42.676;23.262;2023-11-19T01:59:42;2.20;;;2.10;;
12076;SDS011;12420;42.676;23.262;2023-11-19T02:02:09;2.30;;;2.10;;
12076;SDS011;12420;42.676;23.262;2023-11-19T02:04:37;2.40;;;2.20;;
12076;SDS011;12420;42.676;23.262;2023-11-19T02:07:06;2.40;;;2.20;;
12076;SDS011;12420;42.676;23.262;2023-11-19T02:09:34;2.47;;;2.27;;
12076;SDS011;12420;42.676;23.262;2023-11-19T02:12:00;2.33;;;2.13;;
12076;SDS011;12420;42.676;23.262;2023-11-19T02:14:27;2.30;;;2.20;;
12076;SDS011;12420;42.676;23.262;2023-11-19T02:16:57;2.07;;;1.97;;
12076;SDS011;12420;42.676;23.262;2023-11-19T02:19:24;2.40;;;2.20;;
12076;SDS011;12420;42.676;23.262;2023-11-19T02:21:50;2.63;;;2.40;;
12076;SDS011;12420;42.676;23.262;2023-11-19T02:24:17;2.20;;;2.10;;
12076;SDS011;12420;42.676;23.262;2023-11-19T02:26:52;2.10;;;2.00;;
12076;SDS011;12420;42.676;23.262;2023-11-19T02:29:28;2.27;;;2.17;;
12076;SDS011;12420;42.676;23.262;2023-11-19T02:31:55;2.43;;;2.23;;
12076;SDS011;12420;42.676;23.262;2023-11-19T02:34:22;2.30;;;2.20;;
12076;SDS011;12420;42.676;23.262;2023-11-19T02:36:49;2.00;;;1.90;;
12076;SDS011;12420;42.676;23.262;2023-11-19T02:39:16;2.57;;;2.37;;
12076;SDS011;12420;42.676;23.262;2023-11-19T02:41:46;3.97;;;2.40;;
12076;SDS011;12420;42.676;23.262;2023-11-19T02:44:16;2.50;;;2.30;;
12076;SDS011;12420;42.676;23.262;2023-11-19T02:46:44;2.17;;;2.03;;
12076;SDS011;12420;42.676;23.262;2023-11-19T02:49:14;2.13;;;1.93;;
12076;SDS011;12420;42.676;23.262;2023-11-19T02:51:41;3.30;;;3.10;;
12076;SDS011;12420;42.676;23.262;2023-11-19T02:54:08;1.93;;;1.83;;
12076;SDS011;12420;42.676;23.262;2023-11-19T02:56:35;2.47;;;2.27;;
12076;SDS011;12420;42.676;23.262;2023-11-19T02:59:04;2.60;;;2.40;;
12076;SDS011;12420;42.676;23.262;2023-11-19T03:01:40;2.43;;;2.33;;
12076;SDS011;12420;42.676;23.262;2023-11-19T03:04:10;2.27;;;2.10;;
12076;SDS011;12420;42.676;23.262;2023-11-19T03:06:42;2.10;;;1.90;;
12076;SDS011;12420;42.676;23.262;2023-11-19T03:09:09;2.27;;;2.17;;
12076;SDS011;12420;42.676;23.262;2023-11-19T03:11:35;2.47;;;2.37;;
12076;SDS011;12420;42.676;23.262;2023-11-19T03:14:02;2.40;;;2.20;;
12076;SDS011;12420;42.676;23.262;2023-11-19T03:16:29;2.40;;;2.20;;
12076;SDS011;12420;42.676;23.262;2023-11-19T03:18:57;2.30;;;2.10;;
12076;SDS011;12420;42.676;23.262;2023-11-19T03:21:28;2.23;;;2.03;;
12076;SDS011;12420;42.676;23.262;2023-11-19T03:23:56;2.33;;;2.20;;
12076;SDS011;12420;42.676;23.262;2023-11-19T03:26:25;2.13;;;2.03;;
12076;SDS011;12420;42.676;23.262;2023-11-19T03:28:53;2.77;;;2.10;;
12076;SDS011;12420;42.676;23.262;2023-11-19T03:31:22;2.30;;;2.10;;
12076;SDS011;12420;42.676;23.262;2023-11-19T03:33:50;2.17;;;2.07;;
12076;SDS011;12420;42.676;23.262;2023-11-19T03:36:16;2.13;;;2.03;;
12076;SDS011;12420;42.676;23.262;2023-11-19T03:38:45;2.37;;;2.27;;
12076;SDS011;12420;42.676;23.262;2023-11-19T03:41:11;2.30;;;2.20;;
12076;SDS011;12420;42.676;23.262;2023-11-19T03:43:39;2.70;;;2.50;;
12076;SDS011;12420;42.676;23.262;2023-11-19T03:46:15;2.07;;;1.97;;
12076;SDS011;12420;42.676;23.262;2023-11-19T03:48:43;2.10;;;2.00;;
12076;SDS011;12420;42.676;23.262;2023-11-19T03:51:11;2.20;;;2.10;;
12076;SDS011;12420;42.676;23.262;2023-11-19T03:53:40;2.50;;;2.30;;
12076;SDS011;12420;42.676;23.262;2023-11-19T03:56:09;2.97;;;2.27;;
12076;SDS011;12420;42.676;23.262;2023-11-19T03:58:36;2.60;;;2.40;;
12076;SDS011;12420;42.676;23.262;2023-11-19T04:01:03;3.30;;;2.00;;
12076;SDS011;12420;42.676;23.262;2023-11-19T04:03:30;2.40;;;2.30;;
12076;SDS011;12420;42.676;23.262;2023-11-19T04:05:57;2.57;;;2.37;;
12076;SDS011;12420;42.676;23.262;2023-11-19T04:08:24;2.10;;;2.00;;
12076;SDS011;12420;42.676;23.262;2023-11-19T04:10:51;3.20;;;2.27;;
12076;SDS011;12420;42.676;23.262;2023-11-19T04:13:20;2.20;;;2.00;;
12076;SDS011;12420;42.676;23.262;2023-11-19T04:15:48;2.67;;;2.47;;
12076;SDS011;12420;42.676;23.262;2023-11-19T04:18:15;2.13;;;2.03;;
12076;SDS011;12420;42.676;23.262;2023-11-19T04:20:42;2.23;;;2.13;;
12076;SDS011;12420;42.676;23.262;2023-11-19T04:23:09;2.33;;;2.20;;
12076;SDS011;12420;42.676;23.262;2023-11-19T04:25:36;2.47;;;2.33;;
12076;SDS011;12420;42.676;23.262;2023-11-19T04:28:03;2.83;;;2.20;;
12076;SDS011;12420;42.676;23.262;2023-11-19T04:30:31;2.50;;;2.30;;
12076;SDS011;12420;42.676;23.262;2023-11-19T04:32:58;2.50;;;2.30;;
12076;SDS011;12420;42.676;23.262;2023-11-19T04:35:25;2.47;;;2.30;;
12076;SDS011;12420;42.676;23.262;2023-11-19T04:37:52;3.50;;;2.37;;
12076;SDS011;12420;42.676;23.262;2023-11-19T04:40:22;2.50;;;2.30;;
12076;SDS011;12420;42.676;23.262;2023-11-19T04:42:49;2.37;;;2.17;;
12076;SDS011;12420;42.676;23.262;2023-11-19T04:45:16;2.30;;;2.20;;
12076;SDS011;12420;42.676;23.262;2023-11-19T04:47:44;2.37;;;2.17;;
12076;SDS011;12420;42.676;23.262;2023-11-19T04:50:11;2.23;;;2.13;;
12076;SDS011;12420;42.676;23.262;2023-11-19T04:52:37;2.23;;;2.10;;
12076;SDS011;12420;42.676;23.262;2023-11-19T04:55:07;3.40;;;2.30;;
12076;SDS011;12420;42.676;23.262;2023-11-19T04:57:36;3.03;;;2.80;;
12076;SDS011;12420;42.676;23.262;2023-11-19T05:00:03;2.90;;;2.53;;
12076;SDS011;12420;42.676;23.262;2023-11-19T05:02:32;2.20;;;2.10;;
12076;SDS011;12420;42.676;23.262;2023-11-19T05:05:00;2.00;;;1.90;;
12076;SDS011;12420;42.676;23.262;2023-11-19T05:07:29;2.00;;;1.90;;
12076;SDS011;12420;42.676;23.262;2023-11-19T05:09:55;2.60;;;2.40;;
12076;SDS011;12420;42.676;23.262;2023-11-19T05:12:23;2.10;;;2.00;;
12076;SDS011;12420;42.676;23.262;2023-11-19T05:14:50;2.07;;;1.97;;
12076;SDS011;12420;42.676;23.262;2023-11-19T05:17:17;2.60;;;2.40;;
12076;SDS011;12420;42.676;23.262;2023-11-19T05:19:44;2.50;;;2.40;;
12076;SDS011;12420;42.676;23.262;2023-11-19T05:22:12;2.23;;;2.10;;
12076;SDS011;12420;42.676;23.262;2023-11-19T05:24:39;2.17;;;2.07;;
12076;SDS011;12420;42.676;23.262;2023-11-19T05:27:06;3.47;;;2.17;;
12076;SDS011;12420;42.676;23.262;2023-11-19T05:29:36;2.70;;;2.50;;
12076;SDS011;12420;42.676;23.262;2023-11-19T05:32:04;2.70;;;2.50;;
12076;SDS011;12420;42.676;23.262;2023-11-19T05:34:32;2.90;;;2.60;;
12076;SDS011;12420;42.676;23.262;2023-11-19T05:36:58;2.23;;;2.13;;
12076;SDS011;12420;42.676;23.262;2023-11-19T05:39:29;2.50;;;2.30;;
12076;SDS011;12420;42.676;23.262;2023-11-19T05:41:56;2.70;;;2.50;;
12076;SDS011;12420;42.676;23.262;2023-11-19T05:44:23;2.10;;;2.00;;
12076;SDS011;12420;42.676;23.262;2023-11-19T05:46:50;2.47;;;2.27;;
12076;SDS011;12420;42.676;23.262;2023-11-19T05:49:17;2.57;;;2.37;;
12076;SDS011;12420;42.676;23.262;2023-11-19T05:51:43;2.63;;;2.43;;
12076;SDS011;12420;42.676;23.262;2023-11-19T05:54:11;2.70;;;2.50;;
12076;SDS011;12420;42.676;23.262;2023-11-19T05:56:40;2.50;;;2.30;;
12076;SDS011;12420;42.676;23.262;2023-11-19T05:59:07;2.93;;;2.57;;
12076;SDS011;12420;42.676;23.262;2023-11-19T06:01:40;2.77;;;2.53;;
12076;SDS011;12420;42.676;23.262;2023-11-19T06:04:07;2.63;;;2.43;;
12076;SDS011;12420;42.676;23.262;2023-11-19T06:06:35;2.83;;;2.63;;
12076;SDS011;12420;42.676;23.262;2023-11-19T06:09:01;2.80;;;2.60;;
12076;SDS011;12420;42.676;23.262;2023-11-19T06:11:31;3.03;;;2.40;;
12076;SDS011;12420;42.676;23.262;2023-11-19T06:14:00;2.90;;;2.70;;
12076;SDS011;12420;42.676;23.262;2023-11-19T06:16:27;3.13;;;2.87;;
12076;SDS011;12420;42.676;23.262;2023-11-19T06:18:54;2.60;;;2.40;;
12076;SDS011;12420;42.676;23.262;2023-11-19T06:21:21;3.43;;;2.40;;
12076;SDS011;12420;42.676;23.262;2023-11-19T06:23:56;2.70;;;2.50;;
12076;SDS011;12420;42.676;23.262;2023-11-19T06:26:23;3.60;;;2.60;;
12076;SDS011;12420;42.676;23.262;2023-11-19T06:28:52;3.03;;;2.73;;
12076;SDS011;12420;42.676;23.262;2023-11-19T06:31:20;2.60;;;2.40;;
12076;SDS011;12420;42.676;23.262;2023-11-19T06:33:47;3.60;;;2.57;;
12076;SDS011;12420;42.676;23.262;2023-11-19T06:36:14;2.70;;;2.50;;
12076;SDS011;12420;42.676;23.262;2023-11-19T06:38:42;2.70;;;2.50;;
12076;SDS011;12420;42.676;23.262;2023-11-19T06:41:09;2.57;;;2.37;;
12076;SDS011;12420;42.676;23.262;2023-11-19T06:43:41;2.53;;;2.33;;
12076;SDS011;12420;42.676;23.262;2023-11-19T06:46:15;2.87;;;2.53;;
12076;SDS011;12420;42.676;23.262;2023-11-19T06:48:44;2.70;;;2.50;;
12076;SDS011;12420;42.676;23.262;2023-11-19T06:51:11;2.60;;;2.40;;
12076;SDS011;12420;42.676;23.262;2023-11-19T06:53:38;2.70;;;2.50;;
12076;SDS011;12420;42.676;23.262;2023-11-19T06:56:06;2.93;;;2.73;;
12076;SDS011;12420;42.676;23.262;2023-11-19T06:58:43;2.77;;;2.53;;
12076;SDS011;12420;42.676;23.262;2023-11-19T07:01:10;2.50;;;2.30;;
12076;SDS011;12420;42.676;23.262;2023-11-19T07:03:37;2.60;;;2.40;;
12076;SDS011;12420;42.676;23.262;2023-11-19T07:06:07;3.87;;;2.53;;
12076;SDS011;12420;42.676;23.262;2023-11-19T07:08:34;3.43;;;3.13;;
12076;SDS011;12420;42.676;23.262;2023-11-19T07:11:01;2.83;;;2.50;;
12076;SDS011;12420;42.676;23.262;2023-11-19T07:13:29;2.63;;;2.43;;
12076;SDS011;12420;42.676;23.262;2023-11-19T07:15:56;3.10;;;2.90;;
12076;SDS011;12420;42.676;23.262;2023-11-19T07:18:23;3.23;;;2.93;;
12076;SDS011;12420;42.676;23.262;2023-11-19T07:20:52;3.10;;;2.80;;
12076;SDS011;12420;42.676;23.262;2023-11-19T07:23:22;3.03;;;2.73;;
12076;SDS011;12420;42.676;23.262;2023-11-19T07:25:49;3.03;;;2.70;;
12076;SDS011;12420;42.676;23.262;2023-11-19T07:28:23;3.40;;;3.10;;
12076;SDS011;12420;42.676;23.262;2023-11-19T07:30:50;2.77;;;2.57;;
12076;SDS011;12420;42.676;23.262;2023-11-19T07:33:18;2.57;;;2.37;;
12076;SDS011;12420;42.676;23.262;2023-11-19T07:35:45;3.43;;;2.50;;
12076;SDS011;12420;42.676;23.262;2023-11-19T07:38:11;2.67;;;2.47;;
12076;SDS011;12420;42.676;23.262;2023-11-19T07:40:39;2.57;;;2.30;;
12076;SDS011;12420;42.676;23.262;2023-11-19T07:43:06;5.30;;;3.57;;
12076;SDS011;12420;42.676;23.262;2023-11-19T07:45:33;3.60;;;3.30;;
12076;SDS011;12420;42.676;23.262;2023-11-19T07:48:01;3.70;;;3.10;;
12076;SDS011;12420;42.676;23.262;2023-11-19T07:50:27;4.30;;;3.40;;
12076;SDS011;12420;42.676;23.262;2023-11-19T07:52:56;4.03;;;3.10;;
12076;SDS011;12420;42.676;23.262;2023-11-19T07:55:23;3.10;;;2.80;;
12076;SDS011;12420;42.676;23.262;2023-11-19T07:57:51;4.47;;;2.93;;
12076;SDS011;12420;42.676;23.262;2023-11-19T08:00:18;2.87;;;2.60;;
12076;SDS011;12420;42.676;23.262;2023-11-19T08:02:45;3.13;;;2.70;;
12076;SDS011;12420;42.676;23.262;2023-11-19T08:05:14;4.33;;;3.43;;
12076;SDS011;12420;42.676;23.262;2023-11-19T08:07:40;3.93;;;3.27;;
12076;SDS011;12420;42.676;23.262;2023-11-19T08:10:07;4.00;;;3.43;;
12076;SDS011;12420;42.676;23.262;2023-11-19T08:12:36;3.47;;;2.90;;
12076;SDS011;12420;42.676;23.262;2023-11-19T08:20:59;3.27;;;2.80;;
12076;SDS011;12420;42.676;23.262;2023-11-19T08:23:29;3.40;;;3.10;;
12076;SDS011;12420;42.676;23.262;2023-11-19T08:25:57;4.27;;;3.10;;
12076;SDS011;12420;42.676;23.262;2023-11-19T08:28:24;3.17;;;2.93;;
12076;SDS011;12420;42.676;23.262;2023-11-19T08:30:50;3.10;;;2.80;;
12076;SDS011;12420;42.676;23.262;2023-11-19T08:33:18;3.53;;;3.23;;
12076;SDS011;12420;42.676;23.262;2023-11-19T08:35:47;3.80;;;3.50;;
12076;SDS011;12420;42.676;23.262;2023-11-19T08:38:16;3.73;;;2.93;;
12076;SDS011;12420;42.676;23.262;2023-11-19T08:40:43;3.00;;;2.80;;
12076;SDS011;12420;42.676;23.262;2023-11-19T08:43:10;3.33;;;3.03;;
12076;SDS011;12420;42.676;23.262;2023-11-19T08:45:37;2.70;;;2.50;;
12076;SDS011;12420;42.676;23.262;2023-11-19T08:48:04;3.23;;;2.93;;
12076;SDS011;12420;42.676;23.262;2023-11-19T08:50:31;4.03;;;3.50;;
12076;SDS011;12420;42.676;23.262;2023-11-19T08:52:58;3.20;;;3.00;;
12076;SDS011;12420;42.676;23.262;2023-11-19T08:55:26;3.20;;;3.00;;
12076;SDS011;12420;42.676;23.262;2023-11-19T08:57:53;2.73;;;2.50;;
12076;SDS011;12420;42.676;23.262;2023-11-19T09:00:20;2.77;;;2.57;;
12076;SDS011;12420;42.676;23.262;2023-11-19T09:02:47;2.90;;;2.70;;
12076;SDS011;12420;42.676;23.262;2023-11-19T09:05:14;2.70;;;2.50;;
12076;SDS011;12420;42.676;23.262;2023-11-19T09:07:40;3.27;;;3.00;;
12076;SDS011;12420;42.676;23.262;2023-11-19T09:10:07;3.00;;;2.70;;
12076;SDS011;12420;42.676;23.262;2023-11-19T09:12:38;3.40;;;3.10;;
12076;SDS011;12420;42.676;23.262;2023-11-19T09:15:05;2.90;;;2.70;;
12076;SDS011;12420;42.676;23.262;2023-11-19T09:17:35;3.20;;;2.87;;
12076;SDS011;12420;42.676;23.262;2023-11-19T09:20:02;4.27;;;3.07;;
12076;SDS011;12420;42.676;23.262;2023-11-19T09:22:29;3.40;;;3.10;;
12076;SDS011;12420;42.676;23.262;2023-11-19T09:24:56;2.60;;;2.40;;
12076;SDS011;12420;42.676;23.262;2023-11-19T09:27:25;2.90;;;2.70;;
12076;SDS011;12420;42.676;23.262;2023-11-19T09:29:53;3.50;;;2.50;;
12076;SDS011;12420;42.676;23.262;2023-11-19T09:32:23;2.97;;;2.77;;
12076;SDS011;12420;42.676;23.262;2023-11-19T09:34:50;2.60;;;2.40;;
12076;SDS011;12420;42.676;23.262;2023-11-19T09:37:17;2.60;;;2.40;;
12076;SDS011;12420;42.676;23.262;2023-11-19T09:39:44;2.97;;;2.77;;
12076;SDS011;12420;42.676;23.262;2023-11-19T09:42:11;5.50;;;3.07;;
12076;SDS011;12420;42.676;23.262;2023-11-19T09:44:38;3.83;;;3.53;;
12076;SDS011;12420;42.676;23.262;2023-11-19T09:47:09;3.70;;;3.40;;
12076;SDS011;12420;42.676;23.262;2023-11-19T09:49:37;2.83;;;2.63;;
12076;SDS011;12420;42.676;23.262;2023-11-19T09:52:05;3.50;;;2.77;;
12076;SDS011;12420;42.676;23.262;2023-11-19T09:54:32;4.53;;;3.30;;
12076;SDS011;12420;42.676;23.262;2023-11-19T09:56:59;3.50;;;3.20;;
12076;SDS011;12420;42.676;23.262;2023-11-19T09:59:29;3.90;;;3.50;;
12076;SDS011;12420;42.676;23.262;2023-11-19T10:01:56;3.60;;;3.27;;
12076;SDS011;12420;42.676;23.262;2023-11-19T10:04:25;4.60;;;3.87;;
12076;SDS011;12420;42.676;23.262;2023-11-19T10:06:55;5.03;;;3.93;;
12076;SDS011;12420;42.676;23.262;2023-11-19T10:09:22;5.03;;;4.10;;
12076;SDS011;12420;42.676;23.262;2023-11-19T10:11:49;3.80;;;3.50;;
12076;SDS011;12420;42.676;23.262;2023-11-19T10:14:16;4.60;;;3.07;;
12076;SDS011;12420;42.676;23.262;2023-11-19T10:16:45;3.50;;;3.20;;
12076;SDS011;12420;42.676;23.262;2023-11-19T10:19:12;4.23;;;3.77;;
12076;SDS011;12420;42.676;23.262;2023-11-19T10:21:47;3.47;;;3.17;;
12076;SDS011;12420;42.676;23.262;2023-11-19T10:24:14;3.27;;;2.70;;
12076;SDS011;12420;42.676;23.262;2023-11-19T10:26:40;2.60;;;2.40;;
12076;SDS011;12420;42.676;23.262;2023-11-19T10:29:08;2.90;;;2.70;;
12076;SDS011;12420;42.676;23.262;2023-11-19T10:31:35;5.23;;;3.80;;
12076;SDS011;12420;42.676;23.262;2023-11-19T10:34:02;3.07;;;2.80;;
12076;SDS011;12420;42.676;23.262;2023-11-19T10:36:38;3.37;;;3.07;;
12076;SDS011;12420;42.676;23.262;2023-11-19T10:39:07;2.73;;;2.53;;
12076;SDS011;12420;42.676;23.262;2023-11-19T10:41:35;2.80;;;2.60;;
12076;SDS011;12420;42.676;23.262;2023-11-19T10:44:02;2.77;;;2.57;;
12076;SDS011;12420;42.676;23.262;2023-11-19T10:46:37;2.83;;;2.53;;
12076;SDS011;12420;42.676;23.262;2023-11-19T10:49:05;2.50;;;2.30;;
12076;SDS011;12420;42.676;23.262;2023-11-19T10:51:32;2.80;;;2.60;;
12076;SDS011;12420;42.676;23.262;2023-11-19T10:54:01;2.90;;;2.60;;
12076;SDS011;12420;42.676;23.262;2023-11-19T10:56:32;2.93;;;2.73;;
12076;SDS011;12420;42.676;23.262;2023-11-19T10:59:01;2.33;;;2.23;;
12076;SDS011;12420;42.676;23.262;2023-11-19T11:01:32;2.60;;;2.40;;
12076;SDS011;12420;42.676;23.262;2023-11-19T11:04:05;2.57;;;2.37;;
12076;SDS011;12420;42.676;23.262;2023-11-19T11:06:39;2.50;;;2.30;;
12076;SDS011;12420;42.676;23.262;2023-11-19T11:09:06;2.77;;;2.57;;
12076;SDS011;12420;42.676;23.262;2023-11-19T11:11:38;3.03;;;2.60;;
12076;SDS011;12420;42.676;23.262;2023-11-19T11:14:09;2.53;;;2.33;;
12076;SDS011;12420;42.676;23.262;2023-11-19T11:16:39;2.40;;;2.20;;
12076;SDS011;12420;42.676;23.262;2023-11-19T11:19:09;2.43;;;2.10;;
12076;SDS011;12420;42.676;23.262;2023-11-19T11:21:37;2.50;;;2.30;;
12076;SDS011;12420;42.676;23.262;2023-11-19T11:24:13;2.40;;;2.20;;
12076;SDS011;12420;42.676;23.262;2023-11-19T11:27:06;2.20;;;2.10;;
12076;SDS011;12420;42.676;23.262;2023-11-19T11:29:51;3.43;;;2.30;;
12076;SDS011;12420;42.676;23.262;2023-11-19T11:32:32;2.73;;;2.53;;
12076;SDS011;12420;42.676;23.262;2023-11-19T11:35:11;2.17;;;2.07;;
12076;SDS011;12420;42.676;23.262;2023-11-19T11:37:50;2.13;;;2.03;;
12076;SDS011;12420;42.676;23.262;2023-11-19T11:40:23;2.90;;;2.60;;
12076;SDS011;12420;42.676;23.262;2023-11-19T11:42:53;2.80;;;2.60;;
12076;SDS011;12420;42.676;23.262;2023-11-19T11:45:20;2.50;;;2.30;;
12076;SDS011;12420;42.676;23.262;2023-11-19T11:48:08;2.50;;;2.40;;
12076;SDS011;12420;42.676;23.262;2023-11-19T11:50:47;2.60;;;2.27;;
12076;SDS011;12420;42.676;23.262;2023-11-19T11:53:18;2.20;;;2.07;;
12076;SDS011;12420;42.676;23.262;2023-11-19T11:55:52;2.63;;;2.43;;
12076;SDS011;12420;42.676;23.262;2023-11-19T11:58:43;2.17;;;2.03;;
12076;SDS011;12420;42.676;23.262;2023-11-19T12:01:14;2.03;;;1.93;;
12076;SDS011;12420;42.676;23.262;2023-11-19T12:03:45;2.43;;;2.30;;
12076;SDS011;12420;42.676;23.262;2023-11-19T12:06:12;2.57;;;2.37;;
12076;SDS011;12420;42.676;23.262;2023-11-19T12:08:39;3.97;;;2.80;;
12076;SDS011;12420;42.676;23.262;2023-11-19T12:11:07;2.30;;;2.10;;
12076;SDS011;12420;42.676;23.262;2023-11-19T12:16:24;2.10;;;2.00;;
12076;SDS011;12420;42.676;23.262;2023-11-19T12:18:52;2.23;;;2.03;;
12076;SDS011;12420;42.676;23.262;2023-11-19T12:21:29;2.10;;;2.00;;
12076;SDS011;12420;42.676;23.262;2023-11-19T12:23:58;2.10;;;1.87;;
12076;SDS011;12420;42.676;23.262;2023-11-19T12:26:36;1.93;;;1.83;;
12076;SDS011;12420;42.676;23.262;2023-11-19T12:29:05;1.90;;;1.70;;
12076;SDS011;12420;42.676;23.262;2023-11-19T12:31:33;2.00;;;1.90;;
12076;SDS011;12420;42.676;23.262;2023-11-19T12:34:05;2.30;;;2.10;;
12076;SDS011;12420;42.676;23.262;2023-11-19T12:36:36;2.23;;;2.10;;
12076;SDS011;12420;42.676;23.262;2023-11-19T12:39:04;2.40;;;2.20;;
12076;SDS011;12420;42.676;23.262;2023-11-19T12:41:32;2.93;;;2.63;;
12076;SDS011;12420;42.676;23.262;2023-11-19T12:44:16;1.90;;;1.80;;
12076;SDS011;12420;42.676;23.262;2023-11-19T12:46:43;1.80;;;1.70;;
12076;SDS011;12420;42.676;23.262;2023-11-19T12:49:11;2.40;;;2.20;;
12076;SDS011;12420;42.676;23.262;2023-11-19T12:51:38;2.30;;;2.10;;
12076;SDS011;12420;42.676;23.262;2023-11-19T12:54:06;2.70;;;2.47;;
12076;SDS011;12420;42.676;23.262;2023-11-19T12:56:33;2.37;;;2.17;;
12076;SDS011;12420;42.676;23.262;2023-11-19T12:59:09;3.03;;;2.10;;
12076;SDS011;12420;42.676;23.262;2023-11-19T13:01:39;2.50;;;2.30;;
12076;SDS011;12420;42.676;23.262;2023-11-19T13:04:17;1.80;;;1.70;;
12076;SDS011;12420;42.676;23.262;2023-11-19T13:06:44;2.70;;;2.20;;
12076;SDS011;12420;42.676;23.262;2023-11-19T13:09:21;3.27;;;2.30;;
12076;SDS011;12420;42.676;23.262;2023-11-19T13:11:48;1.80;;;1.70;;
12076;SDS011;12420;42.676;23.262;2023-11-19T13:14:16;4.27;;;2.20;;
12076;SDS011;12420;42.676;23.262;2023-11-19T13:16:45;2.50;;;2.27;;
12076;SDS011;12420;42.676;23.262;2023-11-19T13:19:13;2.67;;;2.47;;
12076;SDS011;12420;42.676;23.262;2023-11-19T13:21:41;3.13;;;2.60;;
12076;SDS011;12420;42.676;23.262;2023-11-19T13:24:09;2.40;;;2.20;;
12076;SDS011;12420;42.676;23.262;2023-11-19T13:26:36;3.63;;;2.63;;
12076;SDS011;12420;42.676;23.262;2023-11-19T13:29:03;3.37;;;2.37;;
12076;SDS011;12420;42.676;23.262;2023-11-19T13:31:30;2.40;;;2.20;;
12076;SDS011;12420;42.676;23.262;2023-11-19T13:33:59;1.90;;;1.80;;
12076;SDS011;12420;42.676;23.262;2023-11-19T13:36:26;2.30;;;2.10;;
12076;SDS011;12420;42.676;23.262;2023-11-19T13:38:53;2.47;;;2.20;;
12076;SDS011;12420;42.676;23.262;2023-11-19T13:41:24;4.30;;;2.57;;
12076;SDS011;12420;42.676;23.262;2023-11-19T13:43:51;2.30;;;2.10;;
12076;SDS011;12420;42.676;23.262;2023-11-19T13:46:18;2.57;;;2.37;;
12076;SDS011;12420;42.676;23.262;2023-11-19T13:48:45;2.70;;;2.33;;
12076;SDS011;12420;42.676;23.262;2023-11-19T13:51:13;2.67;;;2.00;;
12076;SDS011;12420;42.676;23.262;2023-11-19T13:53:40;2.50;;;2.20;;
12076;SDS011;12420;42.676;23.262;2023-11-19T13:56:08;2.50;;;2.30;;
12076;SDS011;12420;42.676;23.262;2023-11-19T13:58:35;2.83;;;2.60;;
12076;SDS011;12420;42.676;23.262;2023-11-19T14:01:02;2.67;;;2.47;;
12076;SDS011;12420;42.676;23.262;2023-11-19T14:03:29;4.27;;;2.67;;
12076;SDS011;12420;42.676;23.262;2023-11-19T14:05:56;2.60;;;2.40;;
12076;SDS011;12420;42.676;23.262;2023-11-19T14:08:24;4.43;;;2.70;;
12076;SDS011;12420;42.676;23.262;2023-11-19T14:10:51;4.67;;;3.30;;
12076;SDS011;12420;42.676;23.262;2023-11-19T14:13:21;3.57;;;3.03;;
12076;SDS011;12420;42.676;23.262;2023-11-19T14:15:48;3.43;;;3.10;;
12076;SDS011;12420;42.676;23.262;2023-11-19T14:18:15;2.97;;;2.77;;
12076;SDS011;12420;42.676;23.262;2023-11-19T14:20:42;3.30;;;3.00;;
12076;SDS011;12420;42.676;23.262;2023-11-19T14:23:09;2.50;;;2.30;;
12076;SDS011;12420;42.676;23.262;2023-11-19T14:25:39;2.60;;;2.40;;
12076;SDS011;12420;42.676;23.262;2023-11-19T14:28:05;3.10;;;2.80;;
12076;SDS011;12420;42.676;23.262;2023-11-19T14:30:32;3.63;;;2.80;;
12076;SDS011;12420;42.676;23.262;2023-11-19T14:33:00;4.27;;;3.87;;
12076;SDS011;12420;42.676;23.262;2023-11-19T14:35:26;3.60;;;3.10;;
12076;SDS011;12420;42.676;23.262;2023-11-19T14:37:55;5.37;;;3.83;;
12076;SDS011;12420;42.676;23.262;2023-11-19T14:40:25;4.30;;;3.50;;
12076;SDS011;12420;42.676;23.262;2023-11-19T14:42:53;3.13;;;2.80;;
12076;SDS011;12420;42.676;23.262;2023-11-19T14:45:20;4.20;;;3.77;;
12076;SDS011;12420;42.676;23.262;2023-11-19T14:47:47;4.80;;;3.63;;
12076;SDS011;12420;42.676;23.262;2023-11-19T14:50:14;3.40;;;3.10;;